Time;durP1;ratioP1;P1;durP2;ratioP2;P2;SDS_P1;SDS_P2;PMS_P1;PMS_P2;Temp;Humidity;BMP_temperature;BMP_pressure;BME280_temperature;BME280_humidity;BME280_pressure;Samples;Min_cycle;Max_cycle;Signal;HPM_P1;HPM_P2
2021/12/13 00:02:34;;;;;;;68.68;23.42;;;10.30;99.90;;;;;;5118836;27;20095;-65
2021/12/13 00:05:14;;;;;;;68.18;23.48;;;10.30;99.90;;;;;;5126717;27;20055;-65
2021/12/13 00:07:42;;;;;;;62.70;23.95;;;10.30;99.90;;;;;;5133233;27;20116;-65
2021/12/13 00:10:17;;;;;;;84.82;24.92;;;10.30;99.90;;;;;;5135873;27;20143;-65
2021/12/13 00:12:47;;;;;;;85.55;27.23;;;10.30;99.90;;;;;;5141109;27;20062;-65
2021/12/13 00:15:25;;;;;;;89.38;27.50;;;10.20;99.90;;;;;;5137441;27;20570;-65
2021/12/13 00:17:52;;;;;;;76.00;25.58;;;10.20;99.90;;;;;;5143749;27;20043;-64
2021/12/13 00:20:36;;;;;;;67.32;25.50;;;10.20;99.90;;;;;;5135617;27;20073;-65
2021/12/13 00:23:12;;;;;;;75.03;25.20;;;10.20;99.90;;;;;;5147541;27;20039;-65
2021/12/13 00:25:41;;;;;;;73.32;28.88;;;10.20;99.90;;;;;;5103560;27;20047;-65
2021/12/13 00:28:13;;;;;;;81.70;28.00;;;10.20;99.90;;;;;;5113326;27;20047;-65
2021/12/13 00:31:00;;;;;;;86.63;30.20;;;10.20;99.90;;;;;;5134585;27;20061;-65
2021/12/13 00:33:34;;;;;;;74.88;29.75;;;10.20;99.90;;;;;;5115232;27;20043;-65
2021/12/13 00:36:14;;;;;;;92.05;31.33;;;10.20;99.90;;;;;;5106236;27;20440;-64
2021/12/13 00:38:50;;;;;;;76.40;29.13;;;10.20;99.90;;;;;;5127122;27;20039;-64
2021/12/13 00:41:21;;;;;;;71.70;28.58;;;10.30;99.90;;;;;;5124528;27;20043;-65
2021/12/13 00:44:15;;;;;;;84.57;32.45;;;10.30;99.90;;;;;;5121284;27;20043;-64
2021/12/13 00:46:43;;;;;;;85.45;30.13;;;10.20;99.90;;;;;;5145060;27;20499;-64
2021/12/13 00:49:11;;;;;;;81.78;29.70;;;10.20;99.90;;;;;;5136668;27;20043;-64
2021/12/13 00:51:44;;;;;;;65.22;28.52;;;10.20;99.90;;;;;;5138220;27;20071;-64
2021/12/13 00:54:38;;;;;;;64.45;27.75;;;10.20;99.90;;;;;;5140272;27;20398;-64
2021/12/13 00:57:10;;;;;;;65.10;28.30;;;10.20;99.90;;;;;;5124675;27;20063;-64
2021/12/13 00:59:40;;;;;;;66.47;28.80;;;10.20;99.90;;;;;;5133241;27;20054;-64
2021/12/13 01:02:28;;;;;;;59.40;26.83;;;10.20;99.90;;;;;;5146414;27;20046;-64
2021/12/13 01:05:27;;;;;;;61.05;26.17;;;10.20;99.90;;;;;;5113920;27;20051;-64
2021/12/13 01:08:43;;;;;;;56.70;23.17;;;10.20;99.90;;;;;;5129158;27;20138;-64
2021/12/13 01:11:36;;;;;;;59.85;27.20;;;10.20;99.90;;;;;;5111626;27;20090;-64
2021/12/13 01:14:34;;;;;;;52.03;23.80;;;10.20;99.90;;;;;;5131478;27;20046;-63
2021/12/13 01:17:57;;;;;;;51.78;23.77;;;10.30;99.90;;;;;;5132720;27;20059;-63
2021/12/13 01:20:29;;;;;;;59.95;27.05;;;10.20;99.90;;;;;;5109670;27;20059;-63
2021/12/13 01:23:02;;;;;;;54.35;22.77;;;10.20;99.90;;;;;;5131861;27;20130;-63
2021/12/13 01:25:43;;;;;;;62.50;23.73;;;10.20;99.90;;;;;;5141121;27;20108;-63
2021/12/13 01:28:31;;;;;;;64.28;24.17;;;10.20;99.90;;;;;;5135536;27;20288;-64
2021/12/13 01:31:15;;;;;;;53.78;21.83;;;10.20;99.90;;;;;;5133691;27;20100;-63
2021/12/13 01:33:44;;;;;;;61.90;24.55;;;10.30;99.90;;;;;;5136224;27;20527;-63
2021/12/13 01:36:13;;;;;;;55.58;23.90;;;10.20;99.90;;;;;;5135740;27;20395;-63
2021/12/13 01:38:46;;;;;;;49.42;22.60;;;10.30;99.90;;;;;;5134492;27;20050;-63
2021/12/13 01:41:16;;;;;;;61.47;24.73;;;10.30;99.90;;;;;;5137114;27;20058;-64
2021/12/13 01:44:05;;;;;;;45.85;22.33;;;10.20;99.90;;;;;;5124803;27;20159;-63
2021/12/13 01:46:40;;;;;;;64.47;24.88;;;10.20;99.90;;;;;;5132413;27;20039;-64
2021/12/13 01:49:07;;;;;;;58.38;22.95;;;10.20;99.90;;;;;;5126559;27;20070;-64
2021/12/13 01:51:33;;;;;;;60.15;25.02;;;10.20;99.90;;;;;;5111381;27;20095;-64
2021/12/13 01:54:04;;;;;;;54.22;21.83;;;10.20;99.90;;;;;;5130692;27;20039;-64
2021/12/13 01:56:45;;;;;;;62.55;23.52;;;10.20;99.90;;;;;;5114857;27;20386;-64
2021/12/13 02:02:21;;;;;;;59.63;23.88;;;10.20;99.90;;;;;;5129647;27;20055;-64
2021/12/13 02:05:01;;;;;;;77.38;24.98;;;10.20;99.90;;;;;;5117662;27;20030;-64
2021/12/13 02:07:36;;;;;;;70.45;23.20;;;10.20;99.90;;;;;;5146976;27;20047;-64
2021/12/13 02:10:07;;;;;;;56.65;22.80;;;10.10;99.90;;;;;;5113441;27;20047;-64
2021/12/13 02:12:36;;;;;;;65.68;21.55;;;10.10;99.90;;;;;;5135755;27;20035;-64
2021/12/13 02:17:51;;;;;;;61.30;21.02;;;10.10;99.90;;;;;;5135986;27;20047;-64
2021/12/13 02:20:29;;;;;;;57.55;20.95;;;10.20;99.90;;;;;;5136842;27;20734;-64
2021/12/13 02:22:56;;;;;;;45.63;18.48;;;10.10;99.90;;;;;;5130390;27;20039;-64
2021/12/13 02:25:38;;;;;;;46.60;17.65;;;10.10;99.90;;;;;;5126726;27;20557;-64
2021/12/13 02:28:09;;;;;;;49.38;19.85;;;10.10;99.90;;;;;;5111255;27;20051;-65
2021/12/13 02:30:42;;;;;;;42.10;16.75;;;10.10;99.90;;;;;;5133597;27;20043;-64
2021/12/13 02:33:15;;;;;;;41.80;17.33;;;10.10;99.90;;;;;;5110587;27;20473;-64
2021/12/13 02:35:45;;;;;;;51.67;15.98;;;10.10;99.90;;;;;;5111139;27;20158;-64
2021/12/13 02:38:12;;;;;;;36.92;13.32;;;10.10;99.90;;;;;;5125607;27;20046;-64
2021/12/13 02:40:38;;;;;;;40.03;12.73;;;10.20;99.90;;;;;;5137565;27;20069;-64
2021/12/13 02:43:07;;;;;;;35.35;12.85;;;10.10;99.90;;;;;;5129317;27;20792;-64
2021/12/13 02:45:44;;;;;;;43.70;12.23;;;10.10;99.90;;;;;;5134732;27;20039;-64
2021/12/13 02:48:16;;;;;;;35.05;11.93;;;10.10;99.90;;;;;;5137003;27;20053;-64
2021/12/13 02:50:52;;;;;;;41.25;12.95;;;10.10;99.90;;;;;;5129707;27;20127;-64
2021/12/13 02:53:22;;;;;;;44.42;11.27;;;10.20;99.90;;;;;;5125674;27;20047;-64
2021/12/13 02:55:48;;;;;;;26.48;9.38;;;10.10;99.90;;;;;;5141129;27;20054;-64
2021/12/13 02:58:18;;;;;;;34.63;10.75;;;10.10;99.90;;;;;;5128549;27;20039;-64
2021/12/13 03:00:47;;;;;;;29.88;10.32;;;10.10;99.90;;;;;;5127407;27;20142;-64
2021/12/13 03:03:17;;;;;;;33.97;11.55;;;10.10;99.90;;;;;;5132852;27;20049;-64
2021/12/13 03:05:46;;;;;;;36.65;11.23;;;10.10;99.90;;;;;;5119818;27;20036;-64
2021/12/13 03:08:23;;;;;;;28.08;10.65;;;10.10;99.90;;;;;;5103026;27;20047;-64
2021/12/13 03:10:53;;;;;;;40.53;11.43;;;10.10;99.90;;;;;;5128377;27;20426;-64
2021/12/13 03:13:21;;;;;;;34.75;10.95;;;10.10;99.90;;;;;;5128023;27;20061;-64
2021/12/13 03:15:56;;;;;;;37.33;11.48;;;10.10;99.90;;;;;;5135254;27;20035;-64
2021/12/13 03:18:30;;;;;;;37.75;12.98;;;10.10;99.90;;;;;;5144758;27;20047;-64
2021/12/13 03:21:03;;;;;;;36.97;12.73;;;10.10;99.90;;;;;;5129242;27;20043;-64
2021/12/13 03:23:55;;;;;;;37.42;12.75;;;10.10;99.90;;;;;;5139121;27;20122;-64
2021/12/13 03:26:42;;;;;;;35.63;9.82;;;10.10;99.90;;;;;;5106267;27;20053;-64
2021/12/13 03:29:19;;;;;;;32.17;9.55;;;10.10;99.90;;;;;;5107883;27;20104;-64
2021/12/13 03:31:55;;;;;;;25.13;8.55;;;10.10;99.90;;;;;;5105587;28;20446;-64
2021/12/13 03:34:30;;;;;;;26.95;8.18;;;10.10;99.90;;;;;;5116181;27;20054;-64
2021/12/13 03:37:16;;;;;;;36.10;10.13;;;10.10;99.90;;;;;;5113603;27;20054;-64
2021/12/13 03:39:48;;;;;;;27.70;8.02;;;10.10;99.90;;;;;;5116523;28;20047;-64
2021/12/13 03:42:23;;;;;;;20.05;7.88;;;10.10;99.90;;;;;;5124814;28;20047;-64
2021/12/13 03:44:54;;;;;;;23.10;8.90;;;10.10;99.90;;;;;;5111795;28;20495;-65
2021/12/13 03:47:24;;;;;;;22.27;7.82;;;10.10;99.90;;;;;;5127353;28;20159;-64
2021/12/13 03:49:58;;;;;;;26.83;8.57;;;10.10;99.90;;;;;;5107316;27;20035;-64
2021/12/13 03:52:26;;;;;;;25.67;9.10;;;10.10;99.90;;;;;;5108420;28;20044;-63
2021/12/13 03:54:54;;;;;;;26.00;9.23;;;10.10;99.90;;;;;;5111440;28;20047;-64
2021/12/13 03:57:21;;;;;;;21.88;8.10;;;10.10;99.90;;;;;;5124664;27;20621;-64
2021/12/13 03:59:48;;;;;;;20.42;8.02;;;10.10;99.90;;;;;;5109044;28;20044;-64
2021/12/13 04:02:21;;;;;;;24.00;8.90;;;10.10;99.90;;;;;;5109476;28;20059;-64
2021/12/13 04:04:53;;;;;;;18.92;7.15;;;10.00;99.90;;;;;;5110123;28;20043;-64
2021/12/13 04:07:23;;;;;;;19.20;7.25;;;10.00;99.90;;;;;;5126486;28;20107;-64
2021/12/13 04:09:55;;;;;;;24.73;6.65;;;10.00;99.90;;;;;;5121000;28;20043;-64
2021/12/13 04:12:27;;;;;;;16.52;5.85;;;10.00;99.90;;;;;;5109272;28;20475;-64
2021/12/13 04:14:59;;;;;;;16.23;5.53;;;10.00;99.90;;;;;;5120207;28;20111;-64
2021/12/13 04:17:43;;;;;;;17.80;5.72;;;9.90;99.90;;;;;;5128589;27;20092;-64
2021/12/13 04:20:19;;;;;;;14.18;4.47;;;9.90;99.90;;;;;;5120553;27;20104;-64
2021/12/13 04:22:53;;;;;;;15.10;4.88;;;9.90;99.90;;;;;;5121315;28;20043;-64
2021/12/13 04:25:23;;;;;;;14.57;4.47;;;9.90;99.90;;;;;;5116921;28;20051;-64
2021/12/13 04:27:58;;;;;;;12.93;3.85;;;9.90;99.90;;;;;;5129470;27;20047;-64
2021/12/13 04:30:29;;;;;;;10.45;4.40;;;9.80;99.90;;;;;;5126358;27;20443;-64
2021/12/13 04:33:04;;;;;;;13.80;3.42;;;9.90;99.90;;;;;;5112799;27;20050;-64
2021/12/13 04:35:31;;;;;;;8.60;3.55;;;9.80;99.90;;;;;;5111649;27;20134;-64
2021/12/13 04:38:00;;;;;;;9.88;3.97;;;9.80;99.90;;;;;;5143075;27;20051;-64
2021/12/13 04:40:29;;;;;;;8.05;3.55;;;9.80;99.90;;;;;;5118630;27;20512;-64
2021/12/13 04:43:14;;;;;;;10.80;3.35;;;9.90;99.90;;;;;;5112414;28;20048;-64
2021/12/13 04:45:45;;;;;;;8.98;2.72;;;9.80;99.90;;;;;;5111002;27;20039;-64
2021/12/13 04:48:18;;;;;;;14.75;5.28;;;9.80;99.90;;;;;;5112146;28;20050;-64
2021/12/13 04:50:56;;;;;;;12.50;3.88;;;9.80;99.90;;;;;;5118968;27;20086;-64
2021/12/13 04:53:42;;;;;;;12.20;3.65;;;9.80;99.90;;;;;;5126134;27;20094;-64
2021/12/13 04:56:14;;;;;;;12.85;3.78;;;9.80;99.90;;;;;;5115045;27;20047;-64
2021/12/13 04:58:43;;;;;;;11.15;4.07;;;9.80;99.90;;;;;;5117235;27;20270;-64
2021/12/13 05:01:11;;;;;;;9.32;4.68;;;9.80;99.90;;;;;;5125612;27;20058;-64
2021/12/13 05:03:45;;;;;;;9.10;5.35;;;9.80;99.90;;;;;;5109291;27;20059;-64
2021/12/13 05:06:15;;;;;;;13.10;6.30;;;9.80;99.90;;;;;;5109967;27;20035;-64
2021/12/13 05:08:45;;;;;;;9.07;4.55;;;9.80;99.90;;;;;;5121358;27;20538;-64
2021/12/13 05:11:11;;;;;;;9.57;5.32;;;9.80;99.90;;;;;;5122656;27;20198;-65
2021/12/13 05:13:45;;;;;;;10.60;6.43;;;9.80;99.90;;;;;;5121210;27;20122;-64
2021/12/13 05:16:12;;;;;;;13.15;6.35;;;9.80;99.90;;;;;;5114503;27;20052;-64
2021/12/13 05:18:50;;;;;;;11.88;6.50;;;9.80;99.90;;;;;;5112062;28;20047;-64
2021/12/13 05:21:32;;;;;;;10.68;6.28;;;9.80;99.90;;;;;;5107862;28;20059;-64
2021/12/13 05:24:02;;;;;;;9.70;6.47;;;9.80;99.90;;;;;;5114113;27;20509;-64
2021/12/13 05:26:43;;;;;;;12.43;7.15;;;9.80;99.90;;;;;;5113690;27;20101;-64
2021/12/13 05:29:23;;;;;;;14.27;7.20;;;9.70;99.90;;;;;;5128250;27;20059;-64
2021/12/13 05:31:58;;;;;;;14.95;8.02;;;9.70;99.90;;;;;;5147221;27;20054;-64
2021/12/13 05:34:41;;;;;;;9.90;6.85;;;9.70;99.90;;;;;;5136288;27;20072;-64
2021/12/13 05:37:08;;;;;;;15.45;8.45;;;9.70;99.90;;;;;;5131058;27;20069;-64
2021/12/13 05:39:37;;;;;;;14.40;8.15;;;9.70;99.90;;;;;;5111005;27;20590;-64
2021/12/13 05:42:08;;;;;;;19.52;8.95;;;9.70;99.90;;;;;;5111560;27;20535;-64
2021/12/13 05:44:41;;;;;;;16.58;8.45;;;9.70;99.90;;;;;;5129696;27;20506;-64
2021/12/13 05:47:21;;;;;;;14.85;9.05;;;9.70;99.90;;;;;;5119736;27;20070;-65
2021/12/13 05:49:48;;;;;;;17.58;9.80;;;9.70;99.90;;;;;;5112972;27;20082;-64
2021/12/13 05:52:17;;;;;;;18.13;9.18;;;9.70;99.90;;;;;;5133338;27;20051;-64
2021/12/13 05:54:50;;;;;;;19.02;9.68;;;9.70;99.90;;;;;;5112629;27;20051;-65
2021/12/13 05:57:31;;;;;;;18.80;8.80;;;9.70;99.90;;;;;;5130615;27;20043;-64
2021/12/13 06:00:15;;;;;;;14.55;9.15;;;9.70;99.90;;;;;;5133868;27;20117;-64
2021/12/13 06:03:15;;;;;;;16.02;8.48;;;9.70;99.90;;;;;;5135083;27;20389;-64
2021/12/13 06:05:52;;;;;;;13.20;9.07;;;9.70;99.90;;;;;;5131070;27;20046;-64
2021/12/13 06:08:32;;;;;;;14.77;8.20;;;9.70;99.90;;;;;;5131784;27;20065;-64
2021/12/13 06:11:19;;;;;;;24.27;8.35;;;9.70;99.90;;;;;;5130264;27;20039;-64
2021/12/13 06:13:46;;;;;;;10.88;7.00;;;9.70;99.90;;;;;;5137137;27;20494;-64
2021/12/13 06:16:24;;;;;;;13.77;8.40;;;9.70;99.90;;;;;;5137606;27;20131;-64
2021/12/13 06:19:19;;;;;;;12.75;7.50;;;9.70;99.90;;;;;;5130602;27;20361;-64
2021/12/13 06:22:11;;;;;;;16.70;9.63;;;9.70;99.90;;;;;;5130079;27;20126;-64
2021/12/13 06:25:06;;;;;;;11.50;7.75;;;9.70;99.90;;;;;;5117228;27;20552;-64
2021/12/13 06:27:41;;;;;;;13.82;8.43;;;9.70;99.90;;;;;;5113949;27;20061;-64
2021/12/13 06:30:28;;;;;;;14.85;7.68;;;9.70;99.90;;;;;;5140745;27;20047;-64
2021/12/13 06:32:57;;;;;;;18.77;8.77;;;9.70;99.90;;;;;;5111699;27;20076;-64
2021/12/13 06:35:40;;;;;;;14.88;8.82;;;9.70;99.90;;;;;;5111390;27;20051;-64
2021/12/13 06:38:23;;;;;;;15.57;8.67;;;9.70;99.90;;;;;;5125391;27;20486;-64
2021/12/13 06:40:51;;;;;;;15.80;8.23;;;9.70;99.90;;;;;;5130020;27;20525;-64
2021/12/13 06:43:34;;;;;;;13.73;8.18;;;9.70;99.90;;;;;;5134267;27;20680;-64
2021/12/13 06:46:04;;;;;;;14.85;10.43;;;9.70;99.90;;;;;;5121145;27;20130;-64
2021/12/13 06:48:39;;;;;;;18.85;9.85;;;9.70;99.90;;;;;;5135111;27;20057;-64
2021/12/13 06:51:07;;;;;;;14.00;11.30;;;9.70;99.90;;;;;;5130060;27;20051;-64
2021/12/13 06:53:33;;;;;;;18.35;9.13;;;9.70;99.90;;;;;;5128995;27;20401;-64
2021/12/13 06:56:19;;;;;;;14.93;9.98;;;9.70;99.90;;;;;;5127936;27;20047;-64
2021/12/13 06:58:50;;;;;;;18.30;12.40;;;9.70;99.90;;;;;;5130672;27;20047;-64
2021/12/13 07:01:16;;;;;;;17.27;11.85;;;9.70;99.90;;;;;;5128279;27;20035;-64
2021/12/13 07:03:57;;;;;;;20.45;12.45;;;9.60;99.90;;;;;;5129666;27;20053;-65
2021/12/13 07:06:23;;;;;;;22.58;11.27;;;9.70;99.90;;;;;;5119770;27;20059;-64
2021/12/13 07:09:12;;;;;;;20.73;11.93;;;9.70;99.90;;;;;;5128172;27;20042;-65
2021/12/13 07:11:43;;;;;;;16.45;10.88;;;9.70;99.90;;;;;;5111326;27;20504;-65
2021/12/13 07:14:13;;;;;;;17.88;12.05;;;9.70;99.90;;;;;;5111068;27;20414;-65
2021/12/13 07:16:42;;;;;;;21.40;11.88;;;9.60;99.90;;;;;;5134179;27;20050;-65
2021/12/13 07:19:18;;;;;;;17.48;12.43;;;9.60;99.90;;;;;;5145902;27;20050;-65
2021/12/13 07:21:49;;;;;;;20.77;13.57;;;9.70;99.90;;;;;;5138191;27;20118;-65
2021/12/13 07:24:25;;;;;;;20.50;13.13;;;9.70;99.90;;;;;;5137267;27;20122;-65
2021/12/13 07:26:57;;;;;;;20.67;12.82;;;9.60;99.90;;;;;;5141694;27;20043;-65
2021/12/13 07:29:36;;;;;;;19.98;13.60;;;9.60;99.90;;;;;;5146491;27;20101;-65
2021/12/13 07:32:11;;;;;;;20.83;13.13;;;9.60;99.90;;;;;;5107283;27;20471;-65
2021/12/13 07:34:47;;;;;;;18.05;12.25;;;9.60;99.90;;;;;;5129392;28;20088;-65
2021/12/13 07:37:12;;;;;;;21.83;13.27;;;9.60;99.90;;;;;;5107152;27;20049;-64
2021/12/13 07:39:39;;;;;;;22.45;14.98;;;9.60;99.90;;;;;;5150612;27;20439;-64
2021/12/13 07:42:08;;;;;;;23.00;12.98;;;9.60;99.90;;;;;;5150077;27;20050;-64
2021/12/13 07:44:44;;;;;;;21.88;13.88;;;9.60;99.90;;;;;;5145824;27;20054;-65
2021/12/13 07:47:24;;;;;;;19.45;13.90;;;9.60;99.90;;;;;;5130000;27;20050;-65
2021/12/13 07:49:55;;;;;;;18.23;13.27;;;9.60;99.90;;;;;;5129354;28;20054;-65
2021/12/13 07:52:28;;;;;;;18.98;13.43;;;9.60;99.90;;;;;;5126228;27;20039;-65
2021/12/13 07:54:54;;;;;;;26.90;14.07;;;9.60;99.90;;;;;;5128549;27;20450;-65
2021/12/13 07:57:31;;;;;;;19.50;13.82;;;9.60;99.90;;;;;;5127371;27;20050;-65
2021/12/13 07:59:57;;;;;;;21.50;14.95;;;9.70;99.90;;;;;;5109089;28;20039;-65
2021/12/13 08:02:33;;;;;;;20.65;13.07;;;9.70;99.90;;;;;;5130789;27;20027;-65
2021/12/13 08:05:11;;;;;;;20.70;13.90;;;9.60;99.90;;;;;;5110858;27;20469;-65
2021/12/13 08:07:43;;;;;;;16.17;12.55;;;9.70;99.90;;;;;;5134134;27;20039;-65
2021/12/13 08:10:26;;;;;;;21.98;14.50;;;9.70;99.90;;;;;;5122818;27;20058;-65
2021/12/13 08:12:56;;;;;;;15.30;12.40;;;9.70;99.90;;;;;;5129460;27;20058;-65
2021/12/13 08:15:33;;;;;;;21.58;14.35;;;9.70;99.90;;;;;;5121597;27;20039;-65
2021/12/13 08:18:07;;;;;;;17.52;13.55;;;9.70;99.90;;;;;;5121152;27;20058;-65
2021/12/13 08:20:43;;;;;;;18.63;14.20;;;9.70;99.90;;;;;;5137723;27;20034;-65
2021/12/13 08:23:16;;;;;;;17.77;12.40;;;9.70;99.90;;;;;;5130347;27;20066;-65
2021/12/13 08:25:43;;;;;;;16.13;12.07;;;9.70;99.90;;;;;;5113649;27;20051;-65
2021/12/13 08:28:13;;;;;;;18.67;12.80;;;9.70;99.90;;;;;;5140917;27;20084;-65
2021/12/13 08:30:52;;;;;;;18.08;13.10;;;9.70;99.90;;;;;;5153421;27;20405;-65
2021/12/13 08:33:26;;;;;;;21.73;12.27;;;9.70;99.90;;;;;;5133735;27;20047;-65
2021/12/13 08:35:56;;;;;;;;;;;9.70;99.90;;;;;;5134871;27;20133;-64
2021/12/13 08:38:49;;;;;;;17.98;13.30;;;9.70;99.90;;;;;;5134237;27;19926;-64
2021/12/13 08:41:14;;;;;;;15.95;11.85;;;9.70;99.90;;;;;;5133113;27;20047;-65
2021/12/13 08:43:48;;;;;;;15.60;11.70;;;9.70;99.90;;;;;;5132792;27;20190;-65
2021/12/13 08:46:42;;;;;;;16.70;12.15;;;9.70;99.90;;;;;;5122514;27;20126;-65
2021/12/13 08:49:39;;;;;;;15.07;11.48;;;9.70;99.90;;;;;;5122519;27;20050;-65
2021/12/13 08:52:10;;;;;;;19.05;13.25;;;9.70;99.90;;;;;;5113110;27;20059;-64
2021/12/13 08:55:05;;;;;;;15.48;11.43;;;9.70;99.90;;;;;;5128695;27;20043;-65
2021/12/13 08:57:52;;;;;;;15.82;11.73;;;9.70;99.90;;;;;;5111357;27;20055;-65
2021/12/13 09:00:21;;;;;;;19.23;12.82;;;9.70;99.90;;;;;;5108157;27;20072;-65
2021/12/13 09:02:52;;;;;;;18.23;11.68;;;9.70;99.90;;;;;;5116784;27;20043;-65
2021/12/13 09:05:37;;;;;;;16.80;10.73;;;9.70;99.90;;;;;;5139841;27;20055;-64
2021/12/13 09:08:10;;;;;;;17.30;11.27;;;9.70;99.90;;;;;;5136862;27;20062;-66
2021/12/13 09:10:38;;;;;;;15.25;12.15;;;9.70;99.90;;;;;;5112492;28;20047;-66
2021/12/13 09:13:03;;;;;;;12.98;10.30;;;9.70;99.90;;;;;;5117515;27;20514;-66
2021/12/13 09:15:32;;;;;;;17.75;11.13;;;9.80;99.90;;;;;;5127949;27;20116;-66
2021/12/13 09:17:58;;;;;;;12.02;9.38;;;9.80;99.90;;;;;;5130207;27;20099;-66
2021/12/13 09:20:50;;;;;;;13.65;10.00;;;9.80;99.90;;;;;;5131699;27;20047;-66
2021/12/13 09:23:27;;;;;;;13.75;10.05;;;9.80;99.90;;;;;;5116757;27;20366;-66
2021/12/13 09:26:04;;;;;;;14.43;10.43;;;9.80;99.90;;;;;;5145654;27;20043;-66
2021/12/13 09:28:46;;;;;;;15.70;11.05;;;9.80;99.90;;;;;;5105175;27;20471;-66
2021/12/13 09:31:18;;;;;;;17.10;9.60;;;9.80;99.90;;;;;;5139094;27;20050;-66
2021/12/13 09:33:49;;;;;;;16.50;10.00;;;9.80;99.90;;;;;;5153381;27;20044;-66
2021/12/13 09:36:21;;;;;;;13.05;9.23;;;9.70;99.90;;;;;;5132049;27;20046;-66
2021/12/13 09:39:17;;;;;;;15.48;11.00;;;9.80;99.90;;;;;;5134178;27;20267;-66
2021/12/13 09:41:59;;;;;;;14.27;9.05;;;9.80;99.90;;;;;;5130484;27;20126;-66
2021/12/13 09:44:31;;;;;;;22.80;11.25;;;9.80;99.90;;;;;;5132142;27;20161;-66
2021/12/13 09:47:08;;;;;;;19.05;10.25;;;9.80;99.90;;;;;;5136466;27;20483;-66
2021/12/13 09:49:55;;;;;;;11.00;9.35;;;9.80;99.90;;;;;;5109622;27;20035;-65
2021/12/13 09:52:27;;;;;;;17.95;11.68;;;9.80;99.90;;;;;;5110636;27;20502;-66
2021/12/13 09:55:20;;;;;;;13.70;9.52;;;9.80;99.90;;;;;;5131321;27;20091;-66
2021/12/13 09:57:56;;;;;;;13.88;10.00;;;9.80;99.90;;;;;;5128098;27;20048;-66
2021/12/13 10:00:27;;;;;;;14.40;9.88;;;9.80;99.90;;;;;;5130941;27;20107;-66
2021/12/13 10:02:57;;;;;;;14.20;9.73;;;9.80;99.90;;;;;;5133387;27;20042;-66
2021/12/13 10:05:33;;;;;;;16.02;11.27;;;9.90;99.90;;;;;;5152958;27;20091;-66
2021/12/13 10:08:06;;;;;;;16.05;9.82;;;9.80;99.90;;;;;;5128399;27;20466;-66
2021/12/13 10:10:52;;;;;;;17.45;9.95;;;9.90;99.90;;;;;;5138494;27;20744;-66
2021/12/13 10:13:23;;;;;;;15.30;9.85;;;9.90;99.90;;;;;;5123150;27;20045;-66
2021/12/13 10:15:54;;;;;;;14.80;9.55;;;9.90;99.90;;;;;;5132768;27;20074;-66
2021/12/13 10:18:25;;;;;;;19.83;10.20;;;9.90;99.90;;;;;;5130551;27;20058;-66
2021/12/13 10:20:55;;;;;;;15.65;9.75;;;9.90;99.90;;;;;;5128442;27;20486;-66
2021/12/13 10:23:29;;;;;;;16.65;9.80;;;9.90;99.90;;;;;;5130507;27;20061;-66
2021/12/13 10:25:58;;;;;;;14.07;10.15;;;9.90;99.90;;;;;;5146636;27;20430;-66
2021/12/13 10:28:29;;;;;;;13.52;9.95;;;9.90;99.90;;;;;;5148005;27;20065;-66
2021/12/13 10:31:05;;;;;;;15.00;9.68;;;10.00;99.90;;;;;;5141807;27;20066;-66
2021/12/13 10:33:33;;;;;;;16.23;10.98;;;10.00;99.90;;;;;;5128181;27;20070;-66
2021/12/13 10:36:02;;;;;;;12.50;9.90;;;10.00;99.90;;;;;;5141827;27;20206;-66
2021/12/13 10:38:41;;;;;;;13.73;10.48;;;10.00;99.90;;;;;;5124332;27;20050;-66
2021/12/13 10:41:13;;;;;;;17.75;10.50;;;10.00;99.90;;;;;;5144539;27;20055;-66
2021/12/13 10:43:43;;;;;;;14.02;10.57;;;9.90;99.90;;;;;;5126495;27;20047;-65
2021/12/13 10:46:14;;;;;;;16.95;11.40;;;9.90;99.90;;;;;;5128940;27;20079;-66
2021/12/13 10:48:45;;;;;;;18.88;10.93;;;9.90;99.90;;;;;;5123215;27;20067;-66
2021/12/13 10:51:28;;;;;;;16.10;11.70;;;9.90;99.90;;;;;;5129102;27;20508;-66
2021/12/13 10:53:55;;;;;;;20.27;12.43;;;9.90;99.90;;;;;;5128791;27;20246;-67
2021/12/13 10:56:25;;;;;;;14.30;12.30;;;9.80;99.90;;;;;;5122128;27;20058;-66
2021/12/13 10:58:55;;;;;;;19.08;12.27;;;9.80;99.90;;;;;;5128948;27;20070;-66
2021/12/13 11:01:37;;;;;;;27.15;13.55;;;9.80;99.90;;;;;;5122883;27;20084;-66
2021/12/13 11:04:07;;;;;;;16.77;12.02;;;9.80;99.90;;;;;;5126869;27;20051;-66
2021/12/13 11:06:35;;;;;;;18.90;12.13;;;9.80;99.90;;;;;;5122308;27;20466;-66
2021/12/13 11:09:05;;;;;;;22.85;14.05;;;9.80;99.90;;;;;;5122275;27;20084;-67
2021/12/13 11:11:35;;;;;;;17.77;12.70;;;9.90;99.90;;;;;;5151495;27;20103;-66
2021/12/13 11:14:07;;;;;;;20.23;11.50;;;9.90;99.90;;;;;;5136993;27;20043;-66
2021/12/13 11:16:58;;;;;;;22.77;13.02;;;10.00;99.90;;;;;;5135397;27;20099;-66
2021/12/13 11:19:27;;;;;;;15.77;11.93;;;10.00;99.90;;;;;;5132262;27;20062;-66
2021/12/13 11:22:01;;;;;;;16.48;11.07;;;10.00;99.90;;;;;;5123865;27;20039;-66
2021/12/13 11:24:29;;;;;;;22.30;14.15;;;10.10;99.90;;;;;;5124730;27;20302;-65
2021/12/13 11:27:00;;;;;;;16.85;11.38;;;10.10;99.90;;;;;;5114849;27;20035;-65
2021/12/13 11:29:28;;;;;;;17.20;12.27;;;10.10;99.90;;;;;;5108991;27;20040;-68
2021/12/13 11:31:55;;;;;;;22.20;12.13;;;10.10;99.90;;;;;;5115138;27;20050;-66
2021/12/13 11:34:42;;;;;;;20.20;14.18;;;10.20;99.90;;;;;;5117193;27;20058;-66
2021/12/13 11:37:43;;;;;;;15.82;13.32;;;10.20;99.90;;;;;;5103044;28;20407;-66
2021/12/13 11:40:40;;;;;;;14.32;10.85;;;10.30;99.90;;;;;;5121293;27;20053;-66
2021/12/13 11:43:37;;;;;;;16.13;10.45;;;10.30;99.90;;;;;;5123944;27;20050;-66
2021/12/13 11:46:27;;;;;;;18.17;10.75;;;10.40;99.90;;;;;;5074093;28;20136;-65
2021/12/13 11:49:08;;;;;;;18.92;10.52;;;10.40;99.90;;;;;;5110085;28;20051;-66
2021/12/13 11:52:07;;;;;;;18.25;10.20;;;10.50;99.90;;;;;;5089127;28;20056;-66
2021/12/13 11:54:43;;;;;;;14.05;10.73;;;10.50;99.90;;;;;;5088566;28;20059;-66
2021/12/13 11:57:28;;;;;;;17.67;10.70;;;10.50;99.90;;;;;;5096571;28;20499;-66
2021/12/13 12:00:11;;;;;;;14.95;9.95;;;10.60;99.90;;;;;;5103227;28;20039;-66
2021/12/13 12:03:14;;;;;;;18.65;10.38;;;10.60;99.90;;;;;;5105820;28;20066;-66
2021/12/13 12:06:08;;;;;;;21.33;10.95;;;10.60;99.90;;;;;;5105760;28;20714;-66
2021/12/13 12:08:47;;;;;;;17.47;10.43;;;10.70;99.90;;;;;;5111231;28;20505;-66
2021/12/13 12:11:41;;;;;;;12.50;8.70;;;10.70;99.90;;;;;;5129176;27;20288;-65
2021/12/13 12:14:11;;;;;;;13.98;8.63;;;10.70;99.90;;;;;;5113447;28;20082;-66
2021/12/13 12:16:44;;;;;;;15.68;8.30;;;10.80;99.90;;;;;;5112346;28;20035;-66
2021/12/13 12:19:20;;;;;;;11.90;8.10;;;10.80;99.90;;;;;;5129300;28;20440;-66
2021/12/13 12:22:05;;;;;;;15.63;8.48;;;10.80;99.90;;;;;;5128254;28;20049;-66
2021/12/13 12:24:34;;;;;;;12.32;9.10;;;10.80;99.90;;;;;;5126227;28;20449;-66
2021/12/13 12:27:04;;;;;;;13.98;7.35;;;10.80;99.90;;;;;;5116230;27;20047;-66
2021/12/13 12:29:33;;;;;;;15.30;9.38;;;10.80;99.90;;;;;;5126400;27;20057;-66
2021/12/13 12:32:27;;;;;;;24.60;10.07;;;10.80;99.90;;;;;;5121830;28;20052;-65
2021/12/13 12:35:01;;;;;;;18.63;9.98;;;10.80;99.90;;;;;;5118180;27;20046;-66
2021/12/13 12:37:32;;;;;;;21.63;10.10;;;10.80;99.90;;;;;;5109610;28;20055;-66
2021/12/13 12:40:24;;;;;;;17.60;10.48;;;10.90;99.90;;;;;;5125036;27;20058;-66
2021/12/13 12:42:52;;;;;;;14.57;10.23;;;11.00;99.90;;;;;;5125920;27;20062;-66
2021/12/13 12:45:32;;;;;;;16.45;9.32;;;11.00;99.90;;;;;;5133561;27;20051;-66
2021/12/13 12:48:06;;;;;;;15.30;10.27;;;11.00;99.90;;;;;;5121418;27;20099;-66
2021/12/13 12:50:34;;;;;;;17.35;9.80;;;11.00;99.90;;;;;;5143989;27;20101;-66
2021/12/13 12:53:04;;;;;;;15.43;9.38;;;11.00;99.90;;;;;;5152927;27;20513;-66
2021/12/13 12:55:39;;;;;;;17.13;9.45;;;11.00;99.90;;;;;;5152221;27;20051;-66
2021/12/13 12:58:21;;;;;;;20.35;9.63;;;10.90;99.90;;;;;;5130116;27;20081;-66
2021/12/13 13:00:48;;;;;;;16.48;8.55;;;10.90;99.90;;;;;;5097845;27;20043;-65
2021/12/13 13:03:21;;;;;;;16.25;10.18;;;10.80;99.90;;;;;;5110521;27;20040;-66
2021/12/13 13:05:48;;;;;;;16.05;9.13;;;10.80;99.90;;;;;;5127761;27;20035;-66
2021/12/13 13:08:27;;;;;;;15.75;9.70;;;10.80;99.90;;;;;;5131531;27;20043;-66
2021/12/13 13:10:56;;;;;;;15.88;9.27;;;10.80;99.90;;;;;;5113700;27;20138;-66
2021/12/13 13:13:24;;;;;;;18.40;9.65;;;10.70;99.90;;;;;;5145710;27;20098;-66
2021/12/13 13:15:52;;;;;;;19.55;10.50;;;10.70;99.90;;;;;;5141714;27;20031;-66
2021/12/13 13:18:26;;;;;;;16.98;9.75;;;10.70;99.90;;;;;;5150667;27;20121;-66
2021/12/13 13:20:54;;;;;;;;;;;10.60;99.90;;;;;;5138085;27;20054;-66
2021/12/13 13:23:27;;;;;;;20.77;11.05;;;10.60;99.90;;;;;;5120954;27;19933;-66
2021/12/13 13:25:56;;;;;;;20.58;9.88;;;10.60;99.90;;;;;;5148042;27;20090;-66